M I D A S
Marine Information and Data Acquisition System
Tripno 305 of the Zeeleeuw from 2002-08-13 06:48:00 to 2002-08-13 13:10:00
Back to CruiseResearch ActivitiesStationsMapUnderway DataData graphs

EquipmentUnitsComment
TimeDGPSUTC
LatitudeDGPSDM.mWGS84
LongitudeDGPSDM.mWGS84
TemperatureSBE03/SBE38deg celciusITS90
ConductivitySBE21S/mITS90
SalinitySBE21 Practical Salinity Units
ChlorophylAChelsea fluorimeterg/lCalibrated in Aceton
Missing or incorrect values are displayed as -999
Sea surface data collected by the RV Zeeleeuw from 2002-08-13 06:48:00 to 2002-08-13 13:10:00
Time Latitude Longitude Temperature Conductivity Salinity ChlorophylA
2002-08-13 06:49:06 51°13.673 2°55.911 22.628359 0.00583 0.033969  
2002-08-13 06:50:07 51°13.687 2°55.828 22.636275 0.00583 0.03397  
2002-08-13 06:51:07 51°13.694 2°55.749 22.642006 0.00583 0.033971  
2002-08-13 06:52:04 51°13.693 2°55.713 22.650739 0.00583 0.033971  
2002-08-13 06:53:06 51°13.713 2°55.721 22.61779 0.00583 0.033972  
2002-08-13 06:54:06 51°13.794 2°55.665 22.667694 0.005726 0.033505  
2002-08-13 06:55:06 51°13.912 2°55.574 22.675723 0.005726 0.033505  
2002-08-13 06:56:05 51°14.04 2°55.479 22.682737 0.00583 0.033972  
2002-08-13 06:57:06 51°14.177 2°55.379 22.692984 0.00583 0.033973  
2002-08-13 06:58:06 51°14.304 2°55.2 22.703775 0.005726 0.033506  
2002-08-13 06:59:05 51°14.42 2°54.986 22.707632 0.005726 0.033506  
2002-08-13 07:00:06 51°14.545 2°54.827 22.711722 0.005726 0.033507  
2002-08-13 07:01:06 51°14.659 2°54.674 22.718031 0.005726 0.033508  
2002-08-13 07:02:06 51°14.813 2°54.474 22.728196 0.005726 0.033509  
2002-08-13 07:03:05 51°14.99 2°54.252 22.733492 0.005726 0.03351  
2002-08-13 07:04:06 51°15.174 2°54.019 22.736529 0.005726 0.033509  
2002-08-13 07:05:06 51°15.366 2°53.802 22.741707 0.005726 0.03351  
2002-08-13 07:06:06 51°15.572 2°53.618 22.745211 0.005726 0.033512  
2002-08-13 07:07:04 51°15.771 2°53.448 22.747469 0.005726 0.033514  
2002-08-13 07:08:06 51°15.986 2°53.266 22.755333 0.005726 0.033515  
2002-08-13 07:09:06 51°16.196 2°53.089 22.760082 0.005726 0.033516  
2002-08-13 07:10:06 51°16.407 2°52.914 22.769539 0.005726 0.033517  
2002-08-13 07:11:06 51°16.615 2°52.74 22.772847 0.005726 0.033518  
2002-08-13 07:12:04 51°16.815 2°52.571 22.78281 0.005726 0.033519  
2002-08-13 07:13:06 51°17.033 2°52.399 22.78421 0.005726 0.033519  
2002-08-13 07:14:06 51°17.247 2°52.233 22.793471 0.005726 0.03352  
2002-08-13 07:15:04 51°17.452 2°52.068 22.798645 0.005726 0.03352  
2002-08-13 07:16:05 51°17.663 2°51.878 22.803897 0.005726 0.033521  
2002-08-13 07:17:05 51°17.852 2°51.647 22.812298 0.005726 0.033523  
2002-08-13 07:18:05 51°18.029 2°51.389 22.820777 0.005726 0.033523  
2002-08-13 07:19:06 51°18.207 2°51.117 22.829411 0.005726 0.033524  
2002-08-13 07:20:06 51°18.366 2°50.827 22.835671 0.005726 0.033525  
2002-08-13 07:21:06 51°18.519 2°50.531 22.844186 0.005726 0.033528  
2002-08-13 07:22:05 51°18.669 2°50.239 22.852933 0.005726 0.03353  
2002-08-13 07:23:06 51°18.825 2°49.937 22.860163 0.005726 0.033532  
2002-08-13 07:24:06 51°18.979 2°49.643 22.870191 0.005726 0.033534  
2002-08-13 07:25:06 51°19.134 2°49.343 22.872834 0.005726 0.033537  
2002-08-13 07:26:05 51°19.284 2°49.048 22.886706 0.005726 0.033539  
2002-08-13 07:27:06 51°19.436 2°48.737 22.893855 0.005726 0.033541  
2002-08-13 07:28:06 51°19.585 2°48.435 22.90349 0.005622 0.033076  
2002-08-13 07:29:06 51°19.73 2°48.146 22.912502 0.005622 0.03308  
2002-08-13 07:30:06 51°19.849 2°47.905 22.921007 0.005622 0.033082  
2002-08-13 07:31:06 51°19.91 2°47.733 22.930366 0.005622 0.033084  
2002-08-13 07:32:07 51°19.92 2°47.697 22.938016 0.005622 0.033086  
2002-08-13 07:33:06 51°19.92 2°47.697 22.920386 0.005622 0.033086  
2002-08-13 07:34:06 51°19.921 2°47.699 22.934133 0.005622 0.033088  
2002-08-13 07:35:06 51°19.922 2°47.701 22.943646 0.005622 0.033089  
2002-08-13 07:36:06 51°19.923 2°47.703 22.953429 0.005622 0.033091  
2002-08-13 07:37:04 51°19.925 2°47.706 22.964686 0.005622 0.033092  
2002-08-13 07:38:05 51°19.927 2°47.71 22.974893 0.005622 0.033094  
2002-08-13 07:39:06 51°19.929 2°47.714 22.986922 0.005622 0.033095  
2002-08-13 07:40:05 51°19.931 2°47.716 23.000889 0.005622 0.033097  
2002-08-13 07:41:06 51°19.934 2°47.718 23.014466 0.005622 0.033098  
2002-08-13 07:42:05 51°19.936 2°47.718 23.029552 0.005622 0.033099  
2002-08-13 07:43:06 51°19.938 2°47.718 23.045023 0.005622 0.033101  
2002-08-13 07:44:06 51°19.941 2°47.717 23.062467 0.005622 0.033103  
2002-08-13 07:45:06 51°19.942 2°47.715 23.081419 0.005622 0.033104  
2002-08-13 07:46:06 51°19.944 2°47.714 23.099087 0.005622 0.033106  
2002-08-13 07:47:06 51°19.946 2°47.712 23.118842 0.005622 0.033108  
2002-08-13 07:48:06 51°19.947 2°47.711 23.138166 0.005622 0.033109  
2002-08-13 07:49:06 51°19.95 2°47.71 23.159497 0.005622 0.033111  
2002-08-13 07:50:05 51°19.952 2°47.708 23.181403 0.005518 0.032644  
2002-08-13 07:51:06 51°19.954 2°47.705 23.201484 0.005518 0.032646  
2002-08-13 07:52:05 51°19.957 2°47.702 23.224459 0.005518 0.032648  
2002-08-13 07:53:06 51°19.96 2°47.698 23.24793 0.005518 0.032649  
2002-08-13 07:54:06 51°19.985 2°47.709 23.26177 0.005518 0.03265  
2002-08-13 07:55:06 51°19.999 2°47.769 23.292802 0.005518 0.032652  
2002-08-13 07:56:06 51°19.985 2°47.817 23.318336 0.005518 0.032653  
2002-08-13 07:57:06 51°19.957 2°47.841 23.341854 0.005518 0.032654  
2002-08-13 07:58:06 51°19.925 2°47.84 23.367139 0.005518 0.032654  
2002-08-13 07:59:06 51°19.892 2°47.825 23.390718 0.005518 0.032655  
2002-08-13 08:00:06 51°19.856 2°47.806 23.414559 0.005518 0.032655  
2002-08-13 08:01:06 51°19.822 2°47.786 23.437545 0.005518 0.032655  
2002-08-13 08:02:06 51°19.792 2°47.758 23.46349 0.005518 0.032655  
2002-08-13 08:03:06 51°19.767 2°47.727 23.488425 0.005518 0.032655  
2002-08-13 08:04:06 51°19.745 2°47.692 23.511078 0.005518 0.032655  
2002-08-13 08:05:06 51°19.762 2°47.51 23.537729 0.005518 0.032654  
2002-08-13 08:06:06 51°19.826 2°47.163 23.561676 0.005518 0.032657  
2002-08-13 08:07:06 51°19.802 2°46.784 23.584037 0.005518 0.032659  
2002-08-13 08:08:06 51°19.694 2°46.435 23.599582 0.005518 0.032659  
2002-08-13 08:09:06 51°19.584 2°46.085 23.622354 0.005518 0.032662  
2002-08-13 08:10:06 51°19.485 2°45.726 23.649426 0.005518 0.032665  
2002-08-13 08:11:06 51°19.383 2°45.367 23.669915 0.005518 0.032669  
2002-08-13 08:12:06 51°19.284 2°45.006 23.695739 0.005518 0.032673  
2002-08-13 08:13:06 51°19.182 2°44.639 23.720094 0.005518 0.032678  
2002-08-13 08:14:06 51°19.07 2°44.286 23.739027 0.005518 0.032682  
2002-08-13 08:15:06 51°18.99 2°44.08 23.76452 0.005518 0.032687  
2002-08-13 08:16:06 51°18.976 2°43.944 23.789082 0.005518 0.032691  
2002-08-13 08:17:06 51°18.992 2°43.88 23.811105 0.005518 0.032697  
2002-08-13 08:18:06 51°18.986 2°43.864 23.834923 0.005518 0.032697  
2002-08-13 08:19:06 51°18.982 2°43.847 23.860841 0.005518 0.0327  
2002-08-13 08:20:06 51°18.981 2°43.832 23.883455 0.005414 0.032231  
2002-08-13 08:21:06 51°18.982 2°43.817 23.909088 0.005414 0.032233  
2002-08-13 08:22:06 51°18.984 2°43.803 23.93138 0.005414 0.032234  
2002-08-13 08:23:06 51°18.986 2°43.789 23.956231 0.005414 0.032235  
2002-08-13 08:24:06 51°18.99 2°43.775 23.978891 0.005414 0.032236  
2002-08-13 08:25:06 51°18.994 2°43.76 24.000894 0.005414 0.032237  
2002-08-13 08:26:06 51°18.999 2°43.744 19.785658 0.116767 0.617351  
2002-08-13 08:27:06 51°19.003 2°43.728 19.647154 4.613719 33.491581  
2002-08-13 08:28:06 51°19.008 2°43.711 19.645039 4.592618 33.423081  
2002-08-13 08:29:06 51°19.013 2°43.694 19.652766 4.587976 33.394231  
2002-08-13 08:30:06 51°19.018 2°43.677 19.651099 4.588398 33.385324  
2002-08-13 08:31:06 51°19.023 2°43.658 19.647683 4.58671 33.381668  
2002-08-13 08:32:06 51°19.028 2°43.641 19.654352 4.585127 33.36821  
2002-08-13 08:33:06 51°19.073 2°43.628 19.607002 4.584705 33.368136  
2002-08-13 08:34:06 51°19.074 2°43.719 19.63845 4.583756 33.389587  
2002-08-13 08:35:06 51°18.98 2°43.749 19.647073 4.581118 33.346752  
2002-08-13 08:36:06 51°18.913 2°43.838 19.623359 4.584706 33.37992  
2002-08-13 08:37:06 51°18.911 2°43.87 19.62043 4.585972 33.404849  
2002-08-13 08:38:06 51°18.919 2°43.871 19.602241 4.586711 33.413684  
2002-08-13 08:39:06 51°18.926 2°43.863 19.595933 4.586394 33.425165  
2002-08-13 08:40:06 51°18.934 2°43.855 19.632308 4.58555 33.412651  
2002-08-13 08:41:06 51°18.943 2°43.844 19.65057 4.579747 33.349593  
2002-08-13 08:42:06 51°18.953 2°43.83 19.67647 4.582384 33.345858  
2002-08-13 08:43:06 51°18.962 2°43.813 19.678178 4.581329 33.327739  
2002-08-13 08:44:06 51°18.974 2°43.794 19.676592 4.581434 33.326919  
2002-08-13 08:45:06 51°18.996 2°43.779 19.673096 4.580801 33.324002  
2002-08-13 08:46:06 51°19.021 2°43.779 19.64874 4.582068 33.339917  
2002-08-13 08:47:06 51°19.038 2°43.798 19.632552 4.583229 33.37686  
2002-08-13 08:48:06 51°19.044 2°43.826 19.586246 4.582491 33.396683  
2002-08-13 08:49:06 51°19.038 2°43.861 19.618314 4.574894 33.338632  
2002-08-13 08:50:06 51°19.019 2°43.891 19.623888 4.581224 33.371181  
2002-08-13 08:51:06 51°18.992 2°43.91 19.611031 4.581963 33.381137  
2002-08-13 08:52:06 51°18.965 2°43.916 19.656019 4.581857 33.383086  
2002-08-13 08:53:06 51°18.936 2°43.92 19.594346 4.582279 33.385405  
2002-08-13 08:54:06 51°18.952 2°44.035 19.570166 4.58228 33.411277  
2002-08-13 08:55:06 51°19.063 2°43.885 19.598986 4.574473 33.359347  
2002-08-13 08:56:06 51°18.958 2°43.676 19.626491 4.580275 33.370175  
2002-08-13 08:57:06 51°18.776 2°43.733 19.615181 4.583862 33.371917  
2002-08-13 08:58:06 51°18.596 2°43.851 19.565077 4.586711 33.440135  
2002-08-13 08:59:06 51°18.405 2°43.921 19.573464 4.588294 33.469406  
2002-08-13 09:00:06 51°18.225 2°44.004 19.56752 4.591882 33.500969  
2002-08-13 09:01:06 51°18.06 2°44.075 19.609607 4.590299 33.484652  
2002-08-13 09:02:06 51°17.904 2°44.171 19.671673 4.584284 33.406258  
2002-08-13 09:03:06 51°17.727 2°44.187 19.691225 4.578691 33.319132  
2002-08-13 09:04:06 51°17.612 2°44.24 19.709309 4.580273 33.296211  
2002-08-13 09:05:06 51°17.571 2°44.309 19.689478 4.60549 33.503233  
2002-08-13 09:06:06 51°17.563 2°44.338 19.669356 4.611505 33.568019  
2002-08-13 09:07:06 51°17.56 2°44.346 19.668055 4.613088 33.586002  
2002-08-13 09:08:06 51°17.559 2°44.35 19.661997 4.614037 33.598827  
2002-08-13 09:09:06 51°17.561 2°44.355 19.689559 4.615726 33.623334  
2002-08-13 09:10:06 51°17.562 2°44.363 19.670494 4.614248 33.586436  
2002-08-13 09:11:06 51°17.556 2°44.375 19.687161 4.616676 33.661083  
2002-08-13 09:12:06 51°17.547 2°44.386 19.606189 4.613932 33.601355  
2002-08-13 09:13:06 51°17.535 2°44.387 19.575581 4.615938 33.674891  
2002-08-13 09:14:06 51°17.523 2°44.397 19.599596 4.611506 33.618863  
2002-08-13 09:15:06 51°17.513 2°44.405 19.657239 4.615727 33.670331  
2002-08-13 09:16:06 51°17.506 2°44.411 19.713129 4.612033 33.583041  
2002-08-13 09:17:06 51°17.504 2°44.416 19.727592 4.612454 33.549272  
2002-08-13 09:18:06 51°17.504 2°44.42 19.739452 4.610871 33.52175  
2002-08-13 09:19:06 51°17.508 2°44.418 19.73466 4.608655 33.502024  
2002-08-13 09:20:06 51°17.512 2°44.413 19.732994 4.608444 33.49862  
2002-08-13 09:21:06 51°17.518 2°44.405 19.747534 4.608444 33.498058  
2002-08-13 09:22:06 51°17.524 2°44.391 19.725398 4.609288 33.499873  
2002-08-13 09:23:06 51°17.53 2°44.373 19.746844 4.609711 33.519611  
2002-08-13 09:24:06 51°17.536 2°44.352 19.738843 4.609394 33.517595  
2002-08-13 09:25:06 51°17.543 2°44.334 19.74457 4.605701 33.487523  
2002-08-13 09:26:06 51°17.549 2°44.326 19.729257 4.606545 33.482598  
2002-08-13 09:27:06 51°17.552 2°44.33 19.726942 4.604962 33.474768  
2002-08-13 09:28:06 51°17.555 2°44.34 19.775347 4.602008 33.450719  
2002-08-13 09:29:06 51°17.552 2°44.359 19.739209 4.602852 33.450295  
2002-08-13 09:30:06 51°17.534 2°44.386 19.746397 4.602535 33.446037  
2002-08-13 09:31:06 51°17.502 2°44.409 19.747372 4.604118 33.458916  
2002-08-13 09:32:06 51°17.458 2°44.418 19.753139 4.60454 33.460668  
2002-08-13 09:33:06 51°17.411 2°44.412 19.760041 4.60549 33.458297  
2002-08-13 09:34:06 51°17.363 2°44.394 19.757524 4.606756 33.465232  
2002-08-13 09:35:06 51°17.298 2°44.35 19.777783 4.608233 33.475005  
2002-08-13 09:36:06 51°17.262 2°44.097 19.69281 4.611609 33.496861  
2002-08-13 09:37:06 51°17.305 2°43.772 19.663704 4.619313 33.637902  
2002-08-13 09:38:06 51°17.387 2°43.428 19.656304 4.605173 33.470871  
2002-08-13 09:39:06 51°17.48 2°43.088 19.577006 4.610345 33.598641  
2002-08-13 09:40:06 51°17.559 2°42.737 19.550865 4.614989 33.70347  
2002-08-13 09:41:06 51°17.467 2°42.393 19.557748 4.613723 33.686295  
2002-08-13 09:42:06 51°17.34 2°42.067 19.511188 4.616466 33.706458  
2002-08-13 09:43:06 51°17.243 2°41.754 19.471529 4.621531 33.789481  
2002-08-13 09:44:06 51°17.191 2°41.568 19.508051 4.622798 33.824415  
2002-08-13 09:45:06 51°17.212 2°41.446 19.465658 4.625858 33.85236  
2002-08-13 09:46:06 51°17.253 2°41.375 19.509599 4.624697 33.843416  
2002-08-13 09:47:06 51°17.287 2°41.359 19.500145 4.623431 33.815888  
2002-08-13 09:48:06 51°17.307 2°41.359 19.525 4.623114 33.801303  
2002-08-13 09:49:06 51°17.318 2°41.37 19.547892 4.622164 33.795237  
2002-08-13 09:50:06 51°17.323 2°41.369 19.546263 4.622903 33.783031  
2002-08-13 09:51:06 51°17.314 2°41.349 19.544797 4.624907 33.7869  
2002-08-13 09:52:06 51°17.312 2°41.337 19.540969 4.624802 33.785466  
2002-08-13 09:53:07 51°17.319 2°41.331 19.541946 4.625751 33.786969  
2002-08-13 09:54:06 51°17.324 2°41.336 19.600003 4.62438 33.779733  
2002-08-13 09:55:06 51°17.324 2°41.347 19.537262 4.621531 33.769523  
2002-08-13 09:56:06 51°17.319 2°41.359 19.536732 4.621742 33.758718  
2002-08-13 09:57:06 51°17.305 2°41.372 19.619819 4.621953 33.765001  
2002-08-13 09:58:06 51°17.282 2°41.379 19.578797 4.622902 33.751706  
2002-08-13 09:59:06 51°17.258 2°41.379 19.587467 4.623746 33.744389  
2002-08-13 10:00:06 51°17.233 2°41.374 19.595282 4.624168 33.744428  
2002-08-13 10:01:06 51°17.207 2°41.369 19.586246 4.625434 33.750231  
2002-08-13 10:02:06 51°17.183 2°41.38 19.561901 4.624696 33.754997  
2002-08-13 10:03:06 51°17.188 2°41.41 19.578919 4.621953 33.767279  
2002-08-13 10:04:06 51°17.224 2°41.398 19.608223 4.623852 33.76972  
2002-08-13 10:05:06 51°17.276 2°41.367 19.641704 4.624801 33.739373  
2002-08-13 10:06:06 51°17.316 2°41.315 19.658134 4.623534 33.693283  
2002-08-13 10:07:06 51°17.338 2°41.266 19.683096 4.621529 33.660502  
2002-08-13 10:08:06 51°17.349 2°41.224 19.705165 4.620684 33.636655  
2002-08-13 10:09:06 51°17.344 2°41.192 19.707318 4.61868 33.63613  
2002-08-13 10:10:06 51°17.325 2°41.17 19.618599 4.616675 33.634476  
2002-08-13 10:11:06 51°17.295 2°41.149 19.582501 4.614355 33.638162  
2002-08-13 10:12:06 51°17.267 2°41.122 19.630559 4.612139 33.654058  
2002-08-13 10:13:06 51°17.256 2°41.103 19.67643 4.617519 33.63175  
2002-08-13 10:14:06 51°17.248 2°41.107 19.638084 4.618891 33.641809  
2002-08-13 10:15:06 51°17.232 2°41.133 19.637149 4.616359 33.6517  
2002-08-13 10:16:06 51°17.218 2°41.18 19.62702 4.617098 33.650936  
2002-08-13 10:17:06 51°17.223 2°41.236 19.640931 4.618891 33.659351  
2002-08-13 10:18:06 51°17.234 2°41.277 19.676958 4.621001 33.664119  
2002-08-13 10:19:06 51°17.244 2°41.308 19.729257 4.621318 33.650861  
2002-08-13 10:20:06 51°17.255 2°41.323 19.69659 4.621106 33.635011  
2002-08-13 10:21:06 51°17.265 2°41.325 19.713901 4.621317 33.641817  
2002-08-13 10:22:06 51°17.273 2°41.317 19.683706 4.620684 33.638915  
2002-08-13 10:23:07 51°17.279 2°41.301 19.721457 4.620895 33.638375  
2002-08-13 10:24:06 51°17.282 2°41.28 19.687811 4.619418 33.62859  
2002-08-13 10:25:06 51°17.283 2°41.256 19.723042 4.61868 33.615227  
2002-08-13 10:26:06 51°17.281 2°41.228 19.681226 4.616464 33.597728  
2002-08-13 10:27:06 51°17.277 2°41.199 19.681633 4.614354 33.589553  
2002-08-13 10:28:06 51°17.272 2°41.171 19.683096 4.61351 33.580979  
2002-08-13 10:29:06 51°17.284 2°41.155 19.675007 4.614564 33.579991  
2002-08-13 10:30:06 51°17.279 2°41.229 19.70423 4.611822 33.575677  
2002-08-13 10:31:06 51°17.259 2°41.289 19.680048 4.61372 33.574803  
2002-08-13 10:32:06 51°17.249 2°41.306 19.748144 4.613721 33.578751  
2002-08-13 10:33:06 51°17.244 2°41.311 19.725804 4.616252 33.571202  
2002-08-13 10:34:07 51°17.24 2°41.308 19.716013 4.615514 33.566312  
2002-08-13 10:35:06 51°17.238 2°41.301 19.708578 4.614564 33.561393  
2002-08-13 10:36:06 51°17.24 2°41.289 19.708497 4.613615 33.564924  
2002-08-13 10:37:06 51°17.245 2°41.271 19.716298 4.613193 33.553036  
2002-08-13 10:38:06 51°17.253 2°41.247 19.714591 4.61372 33.55846  
2002-08-13 10:39:06 51°17.261 2°41.218 19.77283 4.613192 33.55022  
2002-08-13 10:40:06 51°17.269 2°41.187 19.715079 4.614458 33.54421  
2002-08-13 10:41:06 51°17.281 2°41.159 19.728973 4.612243 33.539671  
2002-08-13 10:42:06 51°17.288 2°41.137 19.741321 4.612454 33.5307  
2002-08-13 10:43:06 51°17.293 2°41.116 19.753829 4.613825 33.531744  
2002-08-13 10:44:06 51°17.297 2°41.104 19.758539 4.613614 33.524406  
2002-08-13 10:45:06 51°17.298 2°41.102 19.742092 4.612981 33.515882  
2002-08-13 10:46:06 51°17.291 2°41.112 19.71191 4.611188 33.526578  
2002-08-13 10:47:06 51°17.281 2°41.127 19.722392 4.609711 33.520173  
2002-08-13 10:48:06 51°17.27 2°41.15 19.701507 4.609499 33.51733  
2002-08-13 10:49:06 51°17.257 2°41.176 19.721295 4.608339 33.520815  
2002-08-13 10:50:06 51°17.241 2°41.205 19.717395 4.610344 33.524204  
2002-08-13 10:51:06 51°17.215 2°41.231 19.713129 4.611188 33.52714  
2002-08-13 10:52:06 51°17.183 2°41.257 19.71707 4.611188 33.533329  
2002-08-13 10:53:06 51°17.17 2°41.288 19.735716 4.611715 33.539314  
2002-08-13 10:54:06 51°17.19 2°41.281 19.722311 4.61256 33.552947  
2002-08-13 10:55:07 51°17.206 2°41.207 19.755656 4.613931 33.544978  
2002-08-13 10:56:06 51°17.188 2°41.106 19.737178 4.615302 33.534772  
2002-08-13 10:57:06 51°17.133 2°41.033 19.764589 4.613403 33.526623  
2002-08-13 10:58:06 51°17.034 2°41.034 19.750661 4.610555 33.52311  
2002-08-13 10:59:06 51°16.884 2°41.019 19.705368 4.610977 33.543432  
2002-08-13 11:00:06 51°16.727 2°40.93 19.685454 4.614037 33.564982  
2002-08-13 11:01:06 51°16.57 2°40.838 19.68773 4.614987 33.594151  
2002-08-13 11:02:06 51°16.408 2°40.757 19.672039 4.619735 33.631171  
2002-08-13 11:03:06 51°16.249 2°40.67 19.678503 4.626277 33.695278  
2002-08-13 11:04:06 51°16.09 2°40.578 19.603747 4.628282 33.736585  
2002-08-13 11:05:06 51°15.93 2°40.494 19.548585 4.630604 33.794203  
2002-08-13 11:06:06 51°15.768 2°40.434 19.588526 4.632821 33.844252  
2002-08-13 11:07:06 51°15.604 2°40.406 19.571754 4.63989 33.880407  
2002-08-13 11:08:06 51°15.444 2°40.441 19.529848 4.645483 33.949053  
2002-08-13 11:09:07 51°15.288 2°40.497 19.552087 4.650547 33.994545  
2002-08-13 11:10:06 51°15.137 2°40.55 19.512248 4.649176 33.997074  
2002-08-13 11:11:06 51°14.983 2°40.602 19.549481 4.648437 33.994465  
2002-08-13 11:12:06 51°14.83 2°40.654 19.524389 4.649598 34.001681  
2002-08-13 11:13:06 51°14.678 2°40.702 19.541172 4.652658 34.015275  
2002-08-13 11:14:06 51°14.525 2°40.748 19.526671 4.653713 34.016459  
2002-08-13 11:15:06 51°14.378 2°40.791 19.5206 4.651603 34.014665  
2002-08-13 11:16:06 51°14.272 2°40.812 19.568578 4.648648 33.982427  
2002-08-13 11:17:06 51°14.193 2°40.83 19.597276 4.64812 33.945464  
2002-08-13 11:18:06 51°14.144 2°40.871 19.621325 4.648436 33.918905  
2002-08-13 11:19:06 51°14.106 2°40.918 19.626573 4.647697 33.902593  
2002-08-13 11:20:06 51°14.087 2°40.959 19.640118 4.646536 33.888544  
2002-08-13 11:21:06 51°14.088 2°40.992 19.649269 4.645587 33.870526  
2002-08-13 11:22:06 51°14.089 2°41.031 19.677283 4.646008 33.866  
2002-08-13 11:23:06 51°14.094 2°41.073 19.654433 4.644531 33.865894  
2002-08-13 11:24:06 51°14.099 2°41.095 19.656467 4.644953 33.857383  
2002-08-13 11:25:06 51°14.096 2°41.091 19.658296 4.645059 33.860522  
2002-08-13 11:26:06 51°14.094 2°41.085 19.653742 4.645586 33.859706  
2002-08-13 11:27:07 51°14.095 2°41.076 19.652359 4.646114 33.866862  
2002-08-13 11:28:07 51°14.098 2°41.069 19.659882 4.646536 33.868031  
2002-08-13 11:29:07 51°14.102 2°41.063 19.677283 4.646641 33.866046  
2002-08-13 11:30:06 51°14.105 2°41.063 19.696224 4.648435 33.871015  
2002-08-13 11:31:06 51°14.106 2°41.069 19.661021 4.648013 33.874401  
2002-08-13 11:32:07 51°14.109 2°41.071 19.650652 4.648646 33.874446  
2002-08-13 11:33:06 51°14.115 2°41.07 19.653986 4.648119 33.875832  
2002-08-13 11:34:06 51°14.123 2°41.067 19.660939 4.647591 33.876079  
2002-08-13 11:35:06 51°14.132 2°41.066 19.694558 4.648435 33.885252  
2002-08-13 11:36:06 51°14.14 2°41.068 19.656385 4.649174 33.888436  
2002-08-13 11:37:06 51°14.148 2°41.073 19.665453 4.650229 33.895345  
2002-08-13 11:38:06 51°14.154 2°41.081 19.665493 4.651917 33.896028  
2002-08-13 11:39:06 51°14.159 2°41.095 19.661102 4.651073 33.90053  
2002-08-13 11:40:06 51°14.156 2°41.114 19.643575 4.651073 33.9068  
2002-08-13 11:41:06 51°14.143 2°41.131 19.639345 4.649807 33.909571  
2002-08-13 11:42:07 51°14.133 2°41.103 19.627142 4.648541 33.896944  
2002-08-13 11:43:06 51°14.124 2°41.075 19.681226 4.648225 33.899489  
2002-08-13 11:44:06 51°14.107 2°41.076 19.664477 4.650018 33.904451  
2002-08-13 11:45:06 51°14.084 2°41.093 19.629664 4.648647 33.903509  
2002-08-13 11:46:06 51°14.061 2°41.115 19.669396 4.648436 33.895511  
2002-08-13 11:47:06 51°14.049 2°41.133 19.652522 4.647697 33.879219  
2002-08-13 11:48:06 51°14.045 2°41.146 19.703742 4.648013 33.869277  
2002-08-13 11:49:07 51°14.046 2°41.156 19.686754 4.648751 33.865632  
2002-08-13 11:50:07 51°14.051 2°41.16 19.688096 4.649701 33.873384  
2002-08-13 11:51:06 51°14.057 2°41.162 19.674153 4.650018 33.871415  
2002-08-13 11:52:06 51°14.062 2°41.167 19.682283 4.649596 33.874799  
2002-08-13 11:53:06 51°14.059 2°41.183 19.650042 4.650862 33.883428  
2002-08-13 11:54:06 51°14.045 2°41.205 19.719426 4.649174 33.884449  
2002-08-13 11:55:06 51°14.023 2°41.229 19.693786 4.6516 33.879781  
2002-08-13 11:56:07 51°13.995 2°41.256 19.676877 4.650018 33.876537  
2002-08-13 11:57:07 51°13.961 2°41.277 19.675251 4.648118 33.863309  
2002-08-13 11:58:06 51°13.921 2°41.29 19.686348 4.647485 33.859279  
2002-08-13 11:59:07 51°13.857 2°41.337 19.696265 4.647169 33.852713  
2002-08-13 12:00:06 51°13.879 2°41.524 19.70358 4.647485 33.846199  
2002-08-13 12:01:06 51°13.935 2°41.839 19.690738 4.648751 33.85312  
2002-08-13 12:02:07 51°13.994 2°42.171 19.705083 4.650756 33.862655  
2002-08-13 12:03:06 51°14.046 2°42.495 19.725114 4.651072 33.860121  
2002-08-13 12:04:07 51°14.098 2°42.833 19.714632 4.653183 33.865399  
2002-08-13 12:05:07 51°14.151 2°43.164 19.673828 4.652233 33.863336  
2002-08-13 12:06:07 51°14.203 2°43.494 19.671389 4.648541 33.875292  
2002-08-13 12:07:07 51°14.256 2°43.825 19.665046 4.647591 33.866969  
2002-08-13 12:08:06 51°14.308 2°44.152 19.686267 4.64738 33.861832  
2002-08-13 12:09:06 51°14.363 2°44.483 19.718898 4.64949 33.86199  
2002-08-13 12:10:06 51°14.416 2°44.817 19.735634 4.652338 33.857947  
2002-08-13 12:11:07 51°14.469 2°45.155 19.776403 4.652444 33.848017  
2002-08-13 12:12:07 51°14.521 2°45.482 19.825788 4.653393 33.844973  
2002-08-13 12:13:06 51°14.57 2°45.806 19.775875 4.65276 33.829038  
2002-08-13 12:14:07 51°14.619 2°46.152 19.792152 4.65086 33.800538  
2002-08-13 12:15:07 51°14.674 2°46.499 19.806558 4.649805 33.783458  
2002-08-13 12:16:07 51°14.726 2°46.845 19.809642 4.648539 33.760713  
2002-08-13 12:17:07 51°14.777 2°47.189 19.851746 4.646428 33.740719  
2002-08-13 12:18:06 51°14.828 2°47.525 19.852922 4.647061 33.736836  
2002-08-13 12:19:07 51°14.879 2°47.872 19.850124 4.648538 33.743206  
2002-08-13 12:20:07 51°14.929 2°48.213 19.870396 4.649593 33.739935  
2002-08-13 12:21:07 51°14.977 2°48.553 19.867802 4.650754 33.739782  
2002-08-13 12:22:07 51°15.026 2°48.895 19.892203 4.649487 33.719909  
2002-08-13 12:23:06 51°15.074 2°49.232 19.890461 4.648115 33.691314  
2002-08-13 12:24:06 51°15.123 2°49.574 19.892122 4.644106 33.65988  
2002-08-13 12:25:06 51°15.164 2°49.92 19.910438 4.640307 33.617812  
2002-08-13 12:26:06 51°15.197 2°50.267 19.9841 4.638302 33.581366  
2002-08-13 12:27:06 51°15.217 2°50.517 19.982805 4.633131 33.523784  
2002-08-13 12:28:07 51°15.233 2°50.729 20.003727 4.631653 33.473318  
2002-08-13 12:29:06 51°15.257 2°51.051 20.058937 4.62796 33.438974  
2002-08-13 12:30:07 51°15.273 2°51.409 20.036494 4.622684 33.366303  
2002-08-13 12:31:06 51°15.258 2°51.759 20.049516 4.612449 33.299638  
2002-08-13 12:32:06 51°15.186 2°52.1 20.058857 4.604852 33.202342  
2002-08-13 12:33:07 51°15.108 2°52.444 20.030064 4.579212 32.978474  
2002-08-13 12:34:06 51°15.023 2°52.77 20.05635 4.560011 32.858089  
2002-08-13 12:35:06 51°14.935 2°53.077 20.233868 4.545661 32.691903  
2002-08-13 12:36:07 51°14.846 2°53.381 20.150253 4.563489 32.708012  
2002-08-13 12:37:06 51°14.762 2°53.675 20.160145 4.551885 32.690507  
2002-08-13 12:38:07 51°14.677 2°53.982 20.193808 4.538275 32.586556  
2002-08-13 12:39:07 51°14.606 2°54.293 20.282894 4.530572 32.467198  
2002-08-13 12:40:06 51°14.529 2°54.594 20.415285 4.532999 32.48236  
2002-08-13 12:41:06 51°14.436 2°54.889 20.491877 4.551987 32.516007  
2002-08-13 12:42:06 51°14.319 2°55.156 20.384304 4.54249 32.362996  
2002-08-13 12:43:06 51°14.227 2°55.323 20.374765 4.443851 31.644667  
2002-08-13 12:44:06 51°14.147 2°55.402 20.414159 4.400179 31.311816  
2002-08-13 12:45:06 51°14.075 2°55.458 20.42876 4.358303 30.972602  
2002-08-13 12:46:06 51°14.002 2°55.51 21.67535 4.312841 30.570045  
2002-08-13 12:47:06 51°13.921 2°55.566 21.477125 0.0578 0.307108  
2002-08-13 12:48:06 51°13.845 2°55.617 21.927941 0.050107 0.265279  
2002-08-13 12:49:06 51°13.787 2°55.663 21.723507 0.046468 0.245553  
2002-08-13 12:50:06 51°13.744 2°55.718 21.942627 0.044909 0.237074  
2002-08-13 12:51:06 51°13.707 2°55.782 21.984545 0.043142 0.227484  
2002-08-13 12:52:06 51°13.682 2°55.852 22.181838 0.041582 0.219036  
2002-08-13 12:53:06 51°13.667 2°55.921 22.388291 0.040231 0.21171  
2002-08-13 12:54:06 51°13.662 2°55.952 22.600238 0.039087 0.205515  
2002-08-13 12:55:07 51°13.664 2°55.948 22.690452 0.038048 0.199886  
2002-08-13 12:56:06 51°13.664 2°55.952 22.887522 0.037009 0.19427  
2002-08-13 12:57:06 51°13.664 2°55.955 22.888144 0.036177 0.189768  
2002-08-13 12:58:06 51°13.664 2°55.955 23.177765 0.035449 0.185817  
2002-08-13 12:59:06 51°13.664 2°55.955 23.310688 0.034618 0.181332  
2002-08-13 13:00:06 51°13.664 2°55.955 23.073823 0.033786 0.176857  
2002-08-13 13:01:08 51°13.664 2°55.955 23.461949 0.032955 0.172392  
2002-08-13 13:02:11 51°13.665 2°55.955 23.376402 0.032331 0.169026  
2002-08-13 13:03:12 51°13.665 2°55.954 22.863039 0.031499 0.164518  
2002-08-13 13:04:42 51°13.665 2°55.955 22.869103 0.03046 0.159023  
2002-08-13 13:05:42 51°13.665 2°55.955 22.886667 0.029733 0.155148  
2002-08-13 13:06:42 51°13.665 2°55.954 22.900615 0.029109 0.151824  
2002-08-13 13:07:42 51°13.665 2°55.954 22.933046 0.028485 0.148506  
2002-08-13 13:08:42 51°13.664 2°55.954 22.963948 0.027758 0.144657  
2002-08-13 13:09:42 51°13.664 2°55.956 22.999027 0.027134 0.141354